sensor_id;sensor_type;location;lat;lon;timestamp;pressure;altitude;pressure_sealevel;temperature;humidity
13709;BME280;54933;51.908;7.730;2022-12-10T00:00:22;100139.34;;;21.09;58.93
13709;BME280;54933;51.908;7.730;2022-12-10T00:02:47;100134.78;;;21.09;59.29
13709;BME280;54933;51.908;7.730;2022-12-10T00:05:13;100145.59;;;21.09;59.00
13709;BME280;54933;51.908;7.730;2022-12-10T00:07:38;100145.59;;;21.09;59.13
13709;BME280;54933;51.908;7.730;2022-12-10T00:10:04;100145.59;;;21.09;59.21
13709;BME280;54933;51.908;7.730;2022-12-10T00:12:29;100144.75;;;21.09;58.94
13709;BME280;54933;51.908;7.730;2022-12-10T00:14:54;100149.31;;;21.08;59.08
13709;BME280;54933;51.908;7.730;2022-12-10T00:17:20;100143.94;;;21.08;58.98
13709;BME280;54933;51.908;7.730;2022-12-10T00:19:45;100151.22;;;21.08;59.16
13709;BME280;54933;51.908;7.730;2022-12-10T00:22:10;100147.69;;;21.07;59.09
13709;BME280;54933;51.908;7.730;2022-12-10T00:24:35;100153.09;;;21.07;59.06
13709;BME280;54933;51.908;7.730;2022-12-10T00:27:01;100159.53;;;21.06;59.09
13709;BME280;54933;51.908;7.730;2022-12-10T00:29:26;100156.84;;;21.06;59.15
13709;BME280;54933;51.908;7.730;2022-12-10T00:31:51;100161.19;;;21.07;59.04
13709;BME280;54933;51.908;7.730;2022-12-10T00:34:16;100159.53;;;21.06;59.14
13709;BME280;54933;51.908;7.730;2022-12-10T00:36:44;100160.59;;;21.05;58.98
13709;BME280;54933;51.908;7.730;2022-12-10T00:39:13;100162.25;;;21.06;59.20
13709;BME280;54933;51.908;7.730;2022-12-10T00:41:38;100166.00;;;21.05;58.69
13709;BME280;54933;51.908;7.730;2022-12-10T00:44:04;100161.44;;;21.06;58.98
13709;BME280;54933;51.908;7.730;2022-12-10T00:46:30;100161.66;;;21.04;58.98
13709;BME280;54933;51.908;7.730;2022-12-10T00:48:55;100159.78;;;21.05;58.99
13709;BME280;54933;51.908;7.730;2022-12-10T00:51:24;100160.59;;;21.05;59.11
13709;BME280;54933;51.908;7.730;2022-12-10T00:53:51;100156.25;;;21.04;58.93
13709;BME280;54933;51.908;7.730;2022-12-10T00:56:22;100158.97;;;21.04;58.99
13709;BME280;54933;51.908;7.730;2022-12-10T00:58:49;100159.78;;;21.05;59.04
13709;BME280;54933;51.908;7.730;2022-12-10T01:01:35;100166.25;;;21.04;59.08
13709;BME280;54933;51.908;7.730;2022-12-10T01:04:07;100162.69;;;21.03;58.98
13709;BME280;54933;51.908;7.730;2022-12-10T01:06:35;100164.38;;;21.04;58.92
13709;BME280;54933;51.908;7.730;2022-12-10T01:09:06;100157.31;;;21.03;59.01
13709;BME280;54933;51.908;7.730;2022-12-10T01:11:34;100162.69;;;21.03;59.04
13709;BME280;54933;51.908;7.730;2022-12-10T01:14:00;100163.53;;;21.04;59.17
13709;BME280;54933;51.908;7.730;2022-12-10T01:16:26;100166.25;;;21.04;59.10
13709;BME280;54933;51.908;7.730;2022-12-10T01:18:53;100170.81;;;21.03;58.90
13709;BME280;54933;51.908;7.730;2022-12-10T01:21:19;100166.25;;;21.04;58.98
13709;BME280;54933;51.908;7.730;2022-12-10T01:23:47;100168.94;;;21.04;59.20
13709;BME280;54933;51.908;7.730;2022-12-10T01:26:16;100175.41;;;21.03;59.07
13709;BME280;54933;51.908;7.730;2022-12-10T01:28:42;100172.72;;;21.03;59.27
13709;BME280;54933;51.908;7.730;2022-12-10T01:33:41;100185.16;;;21.04;59.07
13709;BME280;54933;51.908;7.730;2022-12-10T01:36:13;100175.19;;;21.04;58.92
13709;BME280;54933;51.908;7.730;2022-12-10T01:38:40;100177.88;;;21.04;58.96
13709;BME280;54933;51.908;7.730;2022-12-10T01:41:06;100187.00;;;21.03;58.93
13709;BME280;54933;51.908;7.730;2022-12-10T01:43:53;100189.72;;;21.03;59.05
13709;BME280;54933;51.908;7.730;2022-12-10T01:46:19;100185.38;;;21.02;58.95
13709;BME280;54933;51.908;7.730;2022-12-10T01:48:45;100194.31;;;21.03;59.20
13709;BME280;54933;51.908;7.730;2022-12-10T01:51:13;100188.09;;;21.02;58.92
13709;BME280;54933;51.908;7.730;2022-12-10T01:53:38;100187.84;;;21.04;58.77
13709;BME280;54933;51.908;7.730;2022-12-10T01:56:04;100188.91;;;21.03;58.86
13709;BME280;54933;51.908;7.730;2022-12-10T01:58:29;100197.81;;;21.03;58.61
13709;BME280;54933;51.908;7.730;2022-12-10T02:03:36;100189.72;;;21.03;58.78
13709;BME280;54933;51.908;7.730;2022-12-10T02:06:30;100195.13;;;21.03;59.00
13709;BME280;54933;51.908;7.730;2022-12-10T02:09:02;100197.81;;;21.03;59.04
13709;BME280;54933;51.908;7.730;2022-12-10T02:11:35;100200.53;;;21.03;58.98
13709;BME280;54933;51.908;7.730;2022-12-10T02:14:09;100206.16;;;21.02;58.79
13709;BME280;54933;51.908;7.730;2022-12-10T02:16:40;100207.00;;;21.02;59.02
13709;BME280;54933;51.908;7.730;2022-12-10T02:21:47;100201.59;;;21.02;58.72
13709;BME280;54933;51.908;7.730;2022-12-10T02:24:18;100204.28;;;21.02;58.79
13709;BME280;54933;51.908;7.730;2022-12-10T02:27:04;100193.47;;;21.02;58.97
13709;BME280;54933;51.908;7.730;2022-12-10T02:29:32;100196.19;;;21.02;58.77
13709;BME280;54933;51.908;7.730;2022-12-10T02:32:03;100194.56;;;21.01;58.73
13709;BME280;54933;51.908;7.730;2022-12-10T02:34:33;100191.84;;;21.01;58.80
13709;BME280;54933;51.908;7.730;2022-12-10T02:37:03;100197.25;;;21.01;58.89
13709;BME280;54933;51.908;7.730;2022-12-10T02:39:33;100198.06;;;21.02;58.89
13709;BME280;54933;51.908;7.730;2022-12-10T02:42:02;100195.34;;;21.02;58.63
13709;BME280;54933;51.908;7.730;2022-12-10T02:44:30;100191.84;;;21.01;58.75
13709;BME280;54933;51.908;7.730;2022-12-10T02:46:57;100197.25;;;21.01;58.73
13709;BME280;54933;51.908;7.730;2022-12-10T02:49:24;100190.19;;;21.00;58.77
13709;BME280;54933;51.908;7.730;2022-12-10T02:51:51;100191.84;;;21.01;58.84
13709;BME280;54933;51.908;7.730;2022-12-10T02:54:37;100191.03;;;21.01;58.61
13709;BME280;54933;51.908;7.730;2022-12-10T03:00:19;100193.72;;;21.01;58.82
13709;BME280;54933;51.908;7.730;2022-12-10T03:06:12;100191.84;;;21.01;58.82
13709;BME280;54933;51.908;7.730;2022-12-10T03:08:51;100189.34;;;21.00;58.88
13709;BME280;54933;51.908;7.730;2022-12-10T03:11:22;100189.34;;;21.00;58.83
13709;BME280;54933;51.908;7.730;2022-12-10T03:14:04;100193.94;;;20.99;58.92
13709;BME280;54933;51.908;7.730;2022-12-10T03:16:57;100195.59;;;21.00;58.85
13709;BME280;54933;51.908;7.730;2022-12-10T03:19:36;100190.19;;;21.00;58.72
13709;BME280;54933;51.908;7.730;2022-12-10T03:22:03;100195.59;;;21.00;58.83
13709;BME280;54933;51.908;7.730;2022-12-10T03:24:30;100193.72;;;21.01;58.76
13709;BME280;54933;51.908;7.730;2022-12-10T03:26:57;100192.88;;;21.00;58.84
13709;BME280;54933;51.908;7.730;2022-12-10T03:29:27;100198.28;;;21.00;58.72
13709;BME280;54933;51.908;7.730;2022-12-10T03:31:54;100189.34;;;21.00;58.86
13709;BME280;54933;51.908;7.730;2022-12-10T03:34:20;100195.59;;;21.00;58.75
13709;BME280;54933;51.908;7.730;2022-12-10T03:36:46;100202.66;;;21.01;58.73
13709;BME280;54933;51.908;7.730;2022-12-10T03:39:12;100193.94;;;20.99;58.86
13709;BME280;54933;51.908;7.730;2022-12-10T03:41:38;100187.47;;;21.00;58.51
13709;BME280;54933;51.908;7.730;2022-12-10T03:44:04;100190.19;;;21.00;58.66
13709;BME280;54933;51.908;7.730;2022-12-10T03:46:30;100190.19;;;21.00;58.64
13709;BME280;54933;51.908;7.730;2022-12-10T03:48:56;100189.34;;;21.00;58.84
13709;BME280;54933;51.908;7.730;2022-12-10T03:51:22;100192.06;;;21.00;58.78
13709;BME280;54933;51.908;7.730;2022-12-10T03:53:48;100192.06;;;21.00;58.92
13709;BME280;54933;51.908;7.730;2022-12-10T03:56:17;100196.66;;;20.99;58.93
13709;BME280;54933;51.908;7.730;2022-12-10T03:58:43;100193.94;;;20.99;58.97
13709;BME280;54933;51.908;7.730;2022-12-10T04:01:08;100203.69;;;21.00;58.97
13709;BME280;54933;51.908;7.730;2022-12-10T04:03:35;100202.41;;;21.03;58.73
13709;BME280;54933;51.908;7.730;2022-12-10T04:06:03;100195.34;;;21.02;58.70
13709;BME280;54933;51.908;7.730;2022-12-10T04:08:29;100200.75;;;21.02;58.84
13709;BME280;54933;51.908;7.730;2022-12-10T04:10:54;100196.66;;;20.99;58.95
13709;BME280;54933;51.908;7.730;2022-12-10T04:13:19;100204.75;;;20.99;58.66
13709;BME280;54933;51.908;7.730;2022-12-10T04:16:03;100203.91;;;20.99;58.86
13709;BME280;54933;51.908;7.730;2022-12-10T04:18:47;100213.91;;;20.98;58.97
13709;BME280;54933;51.908;7.730;2022-12-10T04:21:12;100212.25;;;20.97;58.70
13709;BME280;54933;51.908;7.730;2022-12-10T04:23:56;100217.66;;;20.97;59.18
13709;BME280;54933;51.908;7.730;2022-12-10T04:26:40;100215.16;;;20.96;58.85
13709;BME280;54933;51.908;7.730;2022-12-10T04:29:28;100216.00;;;20.96;59.01
13709;BME280;54933;51.908;7.730;2022-12-10T04:31:55;100211.63;;;20.95;58.82
13709;BME280;54933;51.908;7.730;2022-12-10T04:34:21;100217.66;;;20.97;58.81
13709;BME280;54933;51.908;7.730;2022-12-10T04:36:47;100205.19;;;20.96;58.70
13709;BME280;54933;51.908;7.730;2022-12-10T04:39:12;100200.63;;;20.97;58.85
13709;BME280;54933;51.908;7.730;2022-12-10T04:41:39;100221.19;;;20.98;58.66
13709;BME280;54933;51.908;7.730;2022-12-10T04:44:05;100210.38;;;20.98;58.76
13709;BME280;54933;51.908;7.730;2022-12-10T04:46:30;100211.19;;;20.98;58.74
13709;BME280;54933;51.908;7.730;2022-12-10T04:48:55;100219.28;;;20.98;58.63
13709;BME280;54933;51.908;7.730;2022-12-10T04:51:20;100216.81;;;20.97;58.63
13709;BME280;54933;51.908;7.730;2022-12-10T04:53:46;100212.03;;;20.99;58.58
13709;BME280;54933;51.908;7.730;2022-12-10T04:56:11;100215.56;;;20.99;58.87
13709;BME280;54933;51.908;7.730;2022-12-10T04:58:36;100211.19;;;20.98;58.73
13709;BME280;54933;51.908;7.730;2022-12-10T05:01:08;100208.50;;;20.98;58.93
13709;BME280;54933;51.908;7.730;2022-12-10T05:03:34;100211.19;;;20.98;58.76
13709;BME280;54933;51.908;7.730;2022-12-10T05:06:04;100207.69;;;20.98;58.49
13709;BME280;54933;51.908;7.730;2022-12-10T05:08:30;100208.50;;;20.98;58.56
13709;BME280;54933;51.908;7.730;2022-12-10T05:11:03;100206.63;;;20.99;58.94
13709;BME280;54933;51.908;7.730;2022-12-10T05:13:29;100208.50;;;20.98;58.88
13709;BME280;54933;51.908;7.730;2022-12-10T05:15:54;100210.16;;;20.99;58.67
13709;BME280;54933;51.908;7.730;2022-12-10T05:18:20;100205.78;;;20.98;58.48
13709;BME280;54933;51.908;7.730;2022-12-10T05:20:45;100200.63;;;20.97;58.77
13709;BME280;54933;51.908;7.730;2022-12-10T05:23:10;100206.03;;;20.97;58.89
13709;BME280;54933;51.908;7.730;2022-12-10T05:26:08;100208.91;;;20.95;58.73
13709;BME280;54933;51.908;7.730;2022-12-10T05:28:55;100208.13;;;20.95;58.92
13709;BME280;54933;51.908;7.730;2022-12-10T05:31:26;100219.72;;;20.95;58.77
13709;BME280;54933;51.908;7.730;2022-12-10T05:33:53;100225.13;;;20.95;58.94
13709;BME280;54933;51.908;7.730;2022-12-10T05:36:24;100225.13;;;20.95;58.70
13709;BME280;54933;51.908;7.730;2022-12-10T05:38:50;100220.78;;;20.94;59.28
13709;BME280;54933;51.908;7.730;2022-12-10T05:41:21;100213.53;;;20.95;58.67
13709;BME280;54933;51.908;7.730;2022-12-10T05:43:48;100221.81;;;20.93;58.85
13709;BME280;54933;51.908;7.730;2022-12-10T05:46:16;100223.50;;;20.94;58.77
13709;BME280;54933;51.908;7.730;2022-12-10T05:48:42;100224.31;;;20.95;58.82
13709;BME280;54933;51.908;7.730;2022-12-10T05:51:09;100223.50;;;20.94;59.28
13709;BME280;54933;51.908;7.730;2022-12-10T05:53:35;100223.72;;;20.93;58.99
13709;BME280;54933;51.908;7.730;2022-12-10T05:56:01;100234.28;;;20.94;58.93
13709;BME280;54933;51.908;7.730;2022-12-10T05:58:28;100221.81;;;20.93;58.75
13709;BME280;54933;51.908;7.730;2022-12-10T06:00:54;100232.63;;;20.93;58.88
13709;BME280;54933;51.908;7.730;2022-12-10T06:03:20;100234.28;;;20.94;58.94
13709;BME280;54933;51.908;7.730;2022-12-10T06:05:45;100232.63;;;20.93;58.79
13709;BME280;54933;51.908;7.730;2022-12-10T06:08:10;100232.63;;;20.93;58.92
13709;BME280;54933;51.908;7.730;2022-12-10T06:10:36;100240.72;;;20.93;58.95
13709;BME280;54933;51.908;7.730;2022-12-10T06:13:02;100233.69;;;20.92;58.81
13709;BME280;54933;51.908;7.730;2022-12-10T06:15:28;100239.94;;;20.93;58.84
13709;BME280;54933;51.908;7.730;2022-12-10T06:17:54;100233.69;;;20.92;58.84
13709;BME280;54933;51.908;7.730;2022-12-10T06:20:20;100246.13;;;20.93;58.83
13709;BME280;54933;51.908;7.730;2022-12-10T06:22:45;100237.22;;;20.93;58.83
13709;BME280;54933;51.908;7.730;2022-12-10T06:25:10;100240.72;;;20.93;58.81
13709;BME280;54933;51.908;7.730;2022-12-10T06:27:35;100233.69;;;20.92;58.92
13709;BME280;54933;51.908;7.730;2022-12-10T06:30:01;100235.31;;;20.93;59.31
13709;BME280;54933;51.908;7.730;2022-12-10T06:32:26;100233.69;;;20.92;58.86
13709;BME280;54933;51.908;7.730;2022-12-10T06:34:51;100242.63;;;20.93;58.82
13709;BME280;54933;51.908;7.730;2022-12-10T06:37:17;100244.50;;;20.92;59.27
13709;BME280;54933;51.908;7.730;2022-12-10T06:39:42;100243.44;;;20.93;58.95
13709;BME280;54933;51.908;7.730;2022-12-10T06:44:33;100247.19;;;20.92;58.76
13709;BME280;54933;51.908;7.730;2022-12-10T06:51:49;100249.91;;;20.92;59.14
13709;BME280;54933;51.908;7.730;2022-12-10T06:54:14;100250.72;;;20.93;58.99
13709;BME280;54933;51.908;7.730;2022-12-10T06:56:40;100250.97;;;20.91;58.83
13709;BME280;54933;51.908;7.730;2022-12-10T06:59:05;100258.00;;;20.92;58.74
13709;BME280;54933;51.908;7.730;2022-12-10T07:01:34;100252.59;;;20.92;58.97
13709;BME280;54933;51.908;7.730;2022-12-10T07:06:26;100261.53;;;20.93;58.82
13709;BME280;54933;51.908;7.730;2022-12-10T07:08:53;100269.63;;;20.93;59.01
13709;BME280;54933;51.908;7.730;2022-12-10T07:11:21;100269.88;;;20.91;58.91
13709;BME280;54933;51.908;7.730;2022-12-10T07:13:47;100270.44;;;20.93;58.94
13709;BME280;54933;51.908;7.730;2022-12-10T07:16:13;100265.03;;;20.93;58.84
13709;BME280;54933;51.908;7.730;2022-12-10T07:18:38;100266.94;;;20.93;58.81
13709;BME280;54933;51.908;7.730;2022-12-10T07:21:13;100265.03;;;20.93;58.85
13709;BME280;54933;51.908;7.730;2022-12-10T07:23:38;100265.88;;;20.94;58.79
13709;BME280;54933;51.908;7.730;2022-12-10T07:26:04;100272.09;;;20.94;58.82
13709;BME280;54933;51.908;7.730;2022-12-10T07:28:29;100273.75;;;20.95;58.96
13709;BME280;54933;51.908;7.730;2022-12-10T07:31:01;100285.63;;;20.94;59.00
13709;BME280;54933;51.908;7.730;2022-12-10T07:33:26;100275.66;;;20.95;58.73
13709;BME280;54933;51.908;7.730;2022-12-10T07:35:51;100281.84;;;20.95;58.93
13709;BME280;54933;51.908;7.730;2022-12-10T07:38:16;100289.94;;;20.95;58.80
13709;BME280;54933;51.908;7.730;2022-12-10T07:40:42;100289.94;;;20.95;58.51
13709;BME280;54933;51.908;7.730;2022-12-10T07:43:07;100289.16;;;20.95;58.93
13709;BME280;54933;51.908;7.730;2022-12-10T07:45:32;100290.78;;;20.96;58.79
13709;BME280;54933;51.908;7.730;2022-12-10T07:47:57;100291.63;;;20.96;58.64
13709;BME280;54933;51.908;7.730;2022-12-10T07:50:23;100291.19;;;20.99;58.56
13709;BME280;54933;51.908;7.730;2022-12-10T07:52:48;100291.19;;;20.99;58.69
13709;BME280;54933;51.908;7.730;2022-12-10T07:55:13;100297.84;;;20.97;58.79
13709;BME280;54933;51.908;7.730;2022-12-10T07:57:38;100293.72;;;20.94;59.15
13709;BME280;54933;51.908;7.730;2022-12-10T08:00:04;100289.34;;;20.93;58.90
13709;BME280;54933;51.908;7.730;2022-12-10T08:02:29;100298.28;;;20.94;58.82
13709;BME280;54933;51.908;7.730;2022-12-10T08:04:55;100302.06;;;20.93;59.13
13709;BME280;54933;51.908;7.730;2022-12-10T08:07:20;100305.56;;;20.93;59.09
13709;BME280;54933;51.908;7.730;2022-12-10T08:12:10;100297.09;;;20.90;59.29
13709;BME280;54933;51.908;7.730;2022-12-10T08:14:36;100299.56;;;20.91;59.23
13709;BME280;54933;51.908;7.730;2022-12-10T08:19:26;100310.38;;;20.91;58.94
13709;BME280;54933;51.908;7.730;2022-12-10T08:21:52;100308.72;;;20.90;59.13
13709;BME280;54933;51.908;7.730;2022-12-10T08:26:42;100317.41;;;20.92;58.96
13709;BME280;54933;51.908;7.730;2022-12-10T08:29:07;100320.13;;;20.92;59.04
13709;BME280;54933;51.908;7.730;2022-12-10T08:31:33;100322.81;;;20.92;59.03
13709;BME280;54933;51.908;7.730;2022-12-10T08:33:58;100320.72;;;20.94;59.01
13709;BME280;54933;51.908;7.730;2022-12-10T08:36:23;100319.06;;;20.93;58.99
13709;BME280;54933;51.908;7.730;2022-12-10T08:38:49;100326.13;;;20.94;58.93
13709;BME280;54933;51.908;7.730;2022-12-10T08:41:16;100326.13;;;20.94;58.91
13709;BME280;54933;51.908;7.730;2022-12-10T08:43:42;100330.47;;;20.95;59.02
13709;BME280;54933;51.908;7.730;2022-12-10T08:46:09;100332.56;;;20.93;59.12
13709;BME280;54933;51.908;7.730;2022-12-10T08:48:35;100341.13;;;20.90;58.96
13709;BME280;54933;51.908;7.730;2022-12-10T08:51:01;100341.13;;;20.90;59.10
13709;BME280;54933;51.908;7.730;2022-12-10T08:53:26;100349.44;;;20.89;59.04
13709;BME280;54933;51.908;7.730;2022-12-10T08:55:53;100344.06;;;20.89;58.98
13709;BME280;54933;51.908;7.730;2022-12-10T08:58:19;100350.28;;;20.89;58.99
13709;BME280;54933;51.908;7.730;2022-12-10T09:00:45;100345.72;;;20.90;59.25
13709;BME280;54933;51.908;7.730;2022-12-10T09:03:10;100349.22;;;20.90;59.30
13709;BME280;54933;51.908;7.730;2022-12-10T09:05:36;100351.34;;;20.88;59.28
13709;BME280;54933;51.908;7.730;2022-12-10T09:08:01;100353.00;;;20.89;59.75
13709;BME280;54933;51.908;7.730;2022-12-10T09:10:26;100352.38;;;20.87;59.96
13709;BME280;54933;51.908;7.730;2022-12-10T09:12:51;100360.47;;;20.87;60.02
13709;BME280;54933;51.908;7.730;2022-12-10T09:15:17;100353.44;;;20.86;60.03
13709;BME280;54933;51.908;7.730;2022-12-10T09:17:42;100366.13;;;20.86;60.17
13709;BME280;54933;51.908;7.730;2022-12-10T09:20:07;100372.34;;;20.86;60.22
13709;BME280;54933;51.908;7.730;2022-12-10T09:22:33;100376.69;;;20.87;60.22
13709;BME280;54933;51.908;7.730;2022-12-10T09:25:03;100375.66;;;20.88;60.45
13709;BME280;54933;51.908;7.730;2022-12-10T09:27:29;100384.78;;;20.87;60.47
13709;BME280;54933;51.908;7.730;2022-12-10T09:29:55;100386.47;;;20.88;60.35
13709;BME280;54933;51.908;7.730;2022-12-10T09:32:20;100373.97;;;20.87;60.35
13709;BME280;54933;51.908;7.730;2022-12-10T09:34:45;100379.38;;;20.87;60.56
13709;BME280;54933;51.908;7.730;2022-12-10T09:37:10;100381.88;;;20.89;60.25
13709;BME280;54933;51.908;7.730;2022-12-10T09:39:36;100391.03;;;20.88;60.36
13709;BME280;54933;51.908;7.730;2022-12-10T09:42:29;100379.38;;;20.87;60.31
13709;BME280;54933;51.908;7.730;2022-12-10T09:45:11;100384.56;;;20.89;60.51
13709;BME280;54933;51.908;7.730;2022-12-10T09:50:25;100380.22;;;20.88;60.33
13709;BME280;54933;51.908;7.730;2022-12-10T09:52:52;100377.53;;;20.88;60.55
13709;BME280;54933;51.908;7.730;2022-12-10T09:55:30;100371.28;;;20.87;60.56
13709;BME280;54933;51.908;7.730;2022-12-10T09:57:56;100372.34;;;20.86;59.45
13709;BME280;54933;51.908;7.730;2022-12-10T10:00:29;100367.75;;;20.87;59.62
13709;BME280;54933;51.908;7.730;2022-12-10T10:02:57;100369.88;;;20.85;59.97
13709;BME280;54933;51.908;7.730;2022-12-10T10:05:28;100366.94;;;20.86;60.23
13709;BME280;54933;51.908;7.730;2022-12-10T10:07:56;100365.28;;;20.85;60.39
13709;BME280;54933;51.908;7.730;2022-12-10T10:12:51;100364.69;;;20.83;59.84
13709;BME280;54933;51.908;7.730;2022-12-10T10:15:22;100341.53;;;20.33;58.34
13709;BME280;54933;51.908;7.730;2022-12-10T10:17:53;100358.16;;;20.55;56.36
13709;BME280;54933;51.908;7.730;2022-12-10T10:20:20;100358.22;;;20.66;57.56
13709;BME280;54933;51.908;7.730;2022-12-10T10:22:45;100366.25;;;20.73;58.59
13709;BME280;54933;51.908;7.730;2022-12-10T10:25:16;100365.81;;;20.76;59.19
13709;BME280;54933;51.908;7.730;2022-12-10T10:27:42;100364.78;;;20.77;60.20
13709;BME280;54933;51.908;7.730;2022-12-10T10:30:15;100372.66;;;20.78;60.40
13709;BME280;54933;51.908;7.730;2022-12-10T10:36:04;100362.44;;;20.80;60.76
13709;BME280;54933;51.908;7.730;2022-12-10T10:38:15;100369.50;;;20.81;60.83
13709;BME280;54933;51.908;7.730;2022-12-10T10:40:43;100370.53;;;20.80;61.38
13709;BME280;54933;51.908;7.730;2022-12-10T10:43:18;100371.38;;;20.81;61.07
13709;BME280;54933;51.908;7.730;2022-12-10T10:45:49;100364.94;;;20.82;61.23
13709;BME280;54933;51.908;7.730;2022-12-10T10:48:19;100366.78;;;20.81;61.29
13709;BME280;54933;51.908;7.730;2022-12-10T10:50:54;100374.91;;;20.81;61.14
13709;BME280;54933;51.908;7.730;2022-12-10T10:55:49;100376.53;;;20.82;61.32
13709;BME280;54933;51.908;7.730;2022-12-10T10:58:19;100381.94;;;20.82;60.94
13709;BME280;54933;51.908;7.730;2022-12-10T11:01:06;100379.84;;;20.84;61.01
13709;BME280;54933;51.908;7.730;2022-12-10T11:03:33;100379.00;;;20.84;61.19
13709;BME280;54933;51.908;7.730;2022-12-10T11:06:00;100376.09;;;20.85;60.88
13709;BME280;54933;51.908;7.730;2022-12-10T11:08:30;100383.16;;;20.86;61.11
13709;BME280;54933;51.908;7.730;2022-12-10T11:11:05;100373.16;;;20.87;60.98
13709;BME280;54933;51.908;7.730;2022-12-10T11:13:33;100370.25;;;20.88;60.86
13709;BME280;54933;51.908;7.730;2022-12-10T11:18:54;100366.50;;;20.89;60.83
13709;BME280;54933;51.908;7.730;2022-12-10T11:21:21;100365.44;;;20.90;60.77
13709;BME280;54933;51.908;7.730;2022-12-10T11:40:05;100365.66;;;20.89;60.72
13709;BME280;54933;51.908;7.730;2022-12-10T11:47:52;100366.03;;;20.92;60.82
13709;BME280;54933;51.908;7.730;2022-12-10T11:50:41;100375.19;;;20.91;60.65
13709;BME280;54933;51.908;7.730;2022-12-10T11:53:50;100375.44;;;20.90;60.75
13709;BME280;54933;51.908;7.730;2022-12-10T11:56:40;100382.69;;;20.89;60.72
13709;BME280;54933;51.908;7.730;2022-12-10T12:02:15;100385.63;;;20.88;60.72
13709;BME280;54933;51.908;7.730;2022-12-10T12:05:12;100394.34;;;20.90;60.63
13709;BME280;54933;51.908;7.730;2022-12-10T12:08:04;100396.44;;;20.88;60.98
13709;BME280;54933;51.908;7.730;2022-12-10T12:13:27;100391.03;;;20.88;61.13
13709;BME280;54933;51.908;7.730;2022-12-10T12:15:59;100389.16;;;20.88;61.05
13709;BME280;54933;51.908;7.730;2022-12-10T12:18:55;100388.09;;;20.89;61.17
13709;BME280;54933;51.908;7.730;2022-12-10T12:21:23;100379.16;;;20.89;61.15
13709;BME280;54933;51.908;7.730;2022-12-10T12:23:54;100380.59;;;20.91;61.08
13709;BME280;54933;51.908;7.730;2022-12-10T12:26:32;100378.94;;;20.90;61.13
13709;BME280;54933;51.908;7.730;2022-12-10T12:29:13;100375.19;;;20.91;61.16
13709;BME280;54933;51.908;7.730;2022-12-10T12:31:57;100372.50;;;20.91;60.92
13709;BME280;54933;51.908;7.730;2022-12-10T12:34:28;100367.31;;;20.90;60.93
13709;BME280;54933;51.908;7.730;2022-12-10T12:36:58;100366.50;;;20.89;60.86
13709;BME280;54933;51.908;7.730;2022-12-10T12:42:22;100366.88;;;20.93;60.87
13709;BME280;54933;51.908;7.730;2022-12-10T12:48:34;100365.28;;;20.85;59.96
13709;BME280;54933;51.908;7.730;2022-12-10T12:51:12;100381.06;;;20.88;59.62
13709;BME280;54933;51.908;7.730;2022-12-10T12:53:39;100382.69;;;20.89;60.02
13709;BME280;54933;51.908;7.730;2022-12-10T12:56:16;100384.34;;;20.90;60.23
13709;BME280;54933;51.908;7.730;2022-12-10T12:58:51;100393.03;;;20.92;60.01
13709;BME280;54933;51.908;7.730;2022-12-10T13:01:23;100395.53;;;20.94;60.07
13709;BME280;54933;51.908;7.730;2022-12-10T13:03:51;100392.59;;;20.95;60.25
13709;BME280;54933;51.908;7.730;2022-12-10T13:06:37;100399.66;;;20.96;60.36
13709;BME280;54933;51.908;7.730;2022-12-10T13:11:42;100393.44;;;20.96;60.23
13709;BME280;54933;51.908;7.730;2022-12-10T13:22:09;100388.44;;;20.99;60.38
13709;BME280;54933;51.908;7.730;2022-12-10T13:27:31;100389.03;;;21.01;60.06
13709;BME280;54933;51.908;7.730;2022-12-10T13:30:35;100397.72;;;21.03;60.03
13709;BME280;54933;51.908;7.730;2022-12-10T13:33:17;100393.38;;;21.02;60.08
13709;BME280;54933;51.908;7.730;2022-12-10T13:35:50;100392.31;;;21.03;60.13
13709;BME280;54933;51.908;7.730;2022-12-10T13:38:23;100384.22;;;21.03;60.08
13709;BME280;54933;51.908;7.730;2022-12-10T13:41:04;100381.50;;;21.03;59.86
13709;BME280;54933;51.908;7.730;2022-12-10T13:43:54;100388.81;;;21.03;60.07
13709;BME280;54933;51.908;7.730;2022-12-10T13:46:57;100395.03;;;21.03;60.16
13709;BME280;54933;51.908;7.730;2022-12-10T13:49:25;100402.09;;;21.04;60.22
13709;BME280;54933;51.908;7.730;2022-12-10T13:51:59;100407.50;;;21.04;60.16
13709;BME280;54933;51.908;7.730;2022-12-10T13:54:55;100391.63;;;20.72;59.78
13709;BME280;54933;51.908;7.730;2022-12-10T14:06:19;100407.09;;;20.40;52.21
13709;BME280;54933;51.908;7.730;2022-12-10T14:08:56;100410.09;;;20.50;52.92
13709;BME280;54933;51.908;7.730;2022-12-10T14:11:31;100409.22;;;20.56;53.23
13709;BME280;54933;51.908;7.730;2022-12-10T14:13:59;100418.06;;;20.63;53.53
13709;BME280;54933;51.908;7.730;2022-12-10T14:16:28;100416.56;;;20.67;53.96
13709;BME280;54933;51.908;7.730;2022-12-10T14:19:01;100416.72;;;20.72;54.18
13709;BME280;54933;51.908;7.730;2022-12-10T14:21:34;100424.19;;;20.77;54.29
13709;BME280;54933;51.908;7.730;2022-12-10T14:24:01;100430.16;;;20.79;54.65
13709;BME280;54933;51.908;7.730;2022-12-10T14:26:32;100431.38;;;20.83;54.67
13709;BME280;54933;51.908;7.730;2022-12-10T14:31:38;100438.19;;;20.85;54.76
13709;BME280;54933;51.908;7.730;2022-12-10T14:34:06;100432.56;;;20.87;54.84
13709;BME280;54933;51.908;7.730;2022-12-10T14:36:43;100429.66;;;20.88;55.25
13709;BME280;54933;51.908;7.730;2022-12-10T14:39:26;100426.97;;;20.88;55.33
13709;BME280;54933;51.908;7.730;2022-12-10T14:41:55;100424.28;;;20.88;55.46
13709;BME280;54933;51.908;7.730;2022-12-10T14:44:22;100416.75;;;20.90;55.04
13709;BME280;54933;51.908;7.730;2022-12-10T14:49:23;100431.91;;;20.91;55.62